Time;durP1;ratioP1;P1;durP2;ratioP2;P2;SDS_P1;SDS_P2;PMS_P1;PMS_P2;Temp;Humidity;BMP_temperature;BMP_pressure;BME280_temperature;BME280_humidity;BME280_pressure;Samples;Min_cycle;Max_cycle;Signal;HPM_P1;HPM_P2
2022/05/23 00:02:04;;;;;;;3.03;1.87;;;11.90;99.90;;;;;;5033792;28;20898;-64
2022/05/23 00:04:30;;;;;;;2.23;2.03;;;11.90;99.90;;;;;;5034559;28;20511;-70
2022/05/23 00:06:57;;;;;;;1.90;1.80;;;11.80;99.90;;;;;;5034118;28;20402;-71
2022/05/23 00:09:22;;;;;;;2.00;1.90;;;11.80;99.90;;;;;;5033419;28;20253;-71
2022/05/23 00:11:48;;;;;;;3.60;2.50;;;11.80;99.90;;;;;;5034866;28;20875;-64
2022/05/23 00:14:15;;;;;;;2.20;2.10;;;11.80;99.90;;;;;;5033600;28;20211;-72
2022/05/23 00:16:44;;;;;;;4.73;2.10;;;11.70;99.90;;;;;;5033484;28;20206;-64
2022/05/23 00:19:10;;;;;;;2.50;2.30;;;11.70;99.90;;;;;;5034543;28;20508;-64
2022/05/23 00:21:38;;;;;;;3.73;1.80;;;11.70;99.90;;;;;;5034880;28;20405;-63
2022/05/23 00:24:04;;;;;;;2.20;2.00;;;11.70;99.90;;;;;;5034286;28;20470;-64
2022/05/23 00:26:30;;;;;;;1.93;1.80;;;11.60;99.90;;;;;;5032241;28;20449;-68
2022/05/23 00:28:55;;;;;;;2.03;1.80;;;11.60;99.90;;;;;;5033733;28;20450;-64
2022/05/23 00:31:21;;;;;;;3.60;2.17;;;11.60;99.90;;;;;;5034313;28;20176;-71
2022/05/23 00:36:33;;;;;;;1.80;1.70;;;11.50;99.90;;;;;;5033564;28;20190;-65
2022/05/23 00:38:59;;;;;;;2.67;2.03;;;11.50;99.90;;;;;;5034245;28;20401;-64
2022/05/23 00:44:20;;;;;;;2.17;1.97;;;11.50;99.90;;;;;;5033712;28;20453;-71
2022/05/23 00:46:59;;;;;;;2.07;1.97;;;11.40;99.90;;;;;;5033031;28;20415;-64
2022/05/23 00:49:36;;;;;;;3.07;2.20;;;11.40;99.90;;;;;;5032895;28;20436;-64
2022/05/23 00:52:06;;;;;;;5.30;2.43;;;11.40;99.90;;;;;;5033355;28;20450;-71
2022/05/23 00:54:37;;;;;;;2.47;2.27;;;11.40;99.90;;;;;;5034027;28;20441;-71
2022/05/23 00:57:04;;;;;;;2.40;2.23;;;11.40;99.90;;;;;;5032801;28;20957;-71
2022/05/23 00:59:32;;;;;;;5.10;2.00;;;11.40;99.90;;;;;;5032797;28;20462;-64
2022/05/23 01:01:59;;;;;;;4.97;3.50;;;11.50;99.90;;;;;;5033771;28;20433;-71
2022/05/23 01:04:25;;;;;;;4.33;2.13;;;11.50;99.90;;;;;;5033859;28;20432;-64
2022/05/23 01:06:51;;;;;;;2.50;2.30;;;11.50;99.90;;;;;;5032624;28;20418;-66
2022/05/23 01:09:20;;;;;;;3.00;1.90;;;11.50;99.90;;;;;;5033733;28;20448;-64
2022/05/23 01:11:46;;;;;;;3.70;2.57;;;11.50;99.90;;;;;;5033109;28;20175;-71
2022/05/23 01:14:11;;;;;;;2.30;2.10;;;11.40;99.90;;;;;;5032690;28;20441;-64
2022/05/23 01:16:37;;;;;;;3.57;3.20;;;11.50;99.90;;;;;;5031557;28;20188;-71
2022/05/23 01:19:03;;;;;;;3.37;3.07;;;11.50;99.90;;;;;;5033665;28;20198;-65
2022/05/23 01:22:04;;;;;;;3.97;3.20;;;11.40;99.90;;;;;;5033205;28;20473;-64
2022/05/23 01:25:22;;;;;;;4.87;3.13;;;11.50;99.90;;;;;;5032247;28;20207;-71
2022/05/23 01:27:48;;;;;;;3.47;3.27;;;11.50;99.90;;;;;;5007875;28;20796;-71
2022/05/23 01:30:15;;;;;;;4.70;3.00;;;11.50;99.90;;;;;;5015178;28;20411;-64
2022/05/23 01:32:41;;;;;;;4.63;3.30;;;11.50;99.90;;;;;;5032489;28;20411;-71
2022/05/23 01:35:10;;;;;;;3.10;2.90;;;11.50;99.90;;;;;;5033256;28;20465;-64
2022/05/23 01:37:36;;;;;;;3.27;2.97;;;11.50;99.90;;;;;;5032484;28;20258;-71
2022/05/23 01:40:02;;;;;;;3.40;3.20;;;11.60;99.90;;;;;;5033202;28;20572;-64
2022/05/23 01:42:28;;;;;;;3.40;2.93;;;11.60;99.90;;;;;;5033462;28;20756;-71
2022/05/23 01:44:53;;;;;;;2.93;2.73;;;11.60;99.90;;;;;;5032116;28;20407;-64
2022/05/23 01:47:21;;;;;;;3.30;3.00;;;11.60;99.90;;;;;;5031911;28;20175;-65
2022/05/23 01:49:47;;;;;;;6.03;3.70;;;11.60;99.90;;;;;;5031826;28;20250;-71
2022/05/23 01:52:14;;;;;;;3.50;3.30;;;11.60;99.90;;;;;;5033385;28;20737;-71
2022/05/23 01:54:39;;;;;;;3.60;2.80;;;11.60;99.90;;;;;;5033002;28;20425;-70
2022/05/23 01:57:07;;;;;;;6.83;3.00;;;11.60;99.90;;;;;;5031332;28;20447;-71
2022/05/23 02:02:17;;;;;;;2.90;2.70;;;11.60;99.90;;;;;;5033045;28;20427;-63
2022/05/23 02:04:45;;;;;;;2.97;2.77;;;11.60;99.90;;;;;;5030693;28;20413;-65
2022/05/23 02:07:12;;;;;;;3.43;2.90;;;11.50;99.90;;;;;;5031883;28;20250;-66
2022/05/23 02:09:38;;;;;;;3.03;2.83;;;11.50;99.90;;;;;;5032706;28;20537;-64
2022/05/23 02:12:05;;;;;;;3.50;2.70;;;11.50;99.90;;;;;;5033305;28;20485;-63
2022/05/23 02:14:30;;;;;;;4.80;2.70;;;11.40;99.90;;;;;;5034115;28;20931;-64
2022/05/23 02:16:56;;;;;;;5.27;2.90;;;11.40;99.90;;;;;;5034853;28;20413;-64
2022/05/23 02:19:22;;;;;;;2.73;2.53;;;11.40;99.90;;;;;;5036866;28;20223;-71
2022/05/23 02:21:47;;;;;;;3.17;2.97;;;11.40;99.90;;;;;;5035476;28;20206;-71
2022/05/23 02:24:13;;;;;;;7.00;2.73;;;11.40;99.90;;;;;;5036737;28;20270;-64
2022/05/23 02:26:38;;;;;;;2.83;2.73;;;11.40;99.90;;;;;;5035606;28;20241;-71
2022/05/23 02:29:07;;;;;;;4.43;2.90;;;11.40;99.90;;;;;;5036948;28;20214;-63
2022/05/23 02:31:33;;;;;;;3.90;2.70;;;11.30;99.90;;;;;;5036509;28;20575;-65
2022/05/23 02:33:59;;;;;;;4.87;2.80;;;11.40;99.90;;;;;;5036619;28;20494;-69
2022/05/23 02:36:24;;;;;;;2.67;2.50;;;11.40;99.90;;;;;;5036249;28;20488;-63
2022/05/23 02:38:50;;;;;;;3.63;2.60;;;11.40;99.90;;;;;;5033610;28;20211;-64
2022/05/23 02:41:15;;;;;;;3.00;2.70;;;11.40;99.90;;;;;;5036308;28;20635;-71
2022/05/23 02:43:42;;;;;;;3.47;3.17;;;11.40;99.90;;;;;;5036504;28;20597;-64
2022/05/23 02:46:08;;;;;;;3.93;2.20;;;11.40;99.90;;;;;;5036378;28;20171;-69
2022/05/23 02:48:34;;;;;;;3.20;2.60;;;11.40;99.90;;;;;;5035543;28;20437;-71
2022/05/23 02:51:00;;;;;;;2.50;2.30;;;11.40;99.90;;;;;;5034710;28;20405;-64
2022/05/23 02:53:25;;;;;;;2.00;1.90;;;11.40;99.90;;;;;;5035393;28;20187;-64
2022/05/23 02:55:51;;;;;;;7.57;2.80;;;11.40;99.90;;;;;;5051443;28;20187;-65
2022/05/23 02:58:16;;;;;;;2.97;2.67;;;11.40;99.90;;;;;;5034982;28;20192;-64
2022/05/23 03:00:42;;;;;;;2.37;2.27;;;11.40;99.90;;;;;;5036527;28;20175;-71
2022/05/23 03:03:09;;;;;;;3.63;2.30;;;11.40;99.90;;;;;;5035903;28;20199;-71
2022/05/23 03:05:51;;;;;;;2.43;2.23;;;11.40;99.90;;;;;;5036238;28;20231;-64
2022/05/23 03:08:20;;;;;;;2.73;2.03;;;11.40;99.90;;;;;;5034821;28;20442;-71
2022/05/23 03:10:46;;;;;;;4.57;2.40;;;11.40;99.90;;;;;;5033827;28;20812;-69
2022/05/23 03:13:12;;;;;;;2.87;2.10;;;11.40;99.90;;;;;;5035858;28;20401;-64
2022/05/23 03:15:38;;;;;;;2.77;2.40;;;11.40;99.90;;;;;;5035350;28;20928;-64
2022/05/23 03:18:04;;;;;;;2.40;2.20;;;11.40;99.90;;;;;;5034622;28;20452;-71
2022/05/23 03:20:30;;;;;;;2.23;2.13;;;11.40;99.90;;;;;;5035951;28;20613;-71
2022/05/23 03:28:24;;;;;;;2.67;2.47;;;11.30;99.90;;;;;;5027583;28;20494;-64
2022/05/23 03:30:50;;;;;;;7.67;2.80;;;11.30;99.90;;;;;;5035654;28;20382;-64
2022/05/23 03:33:16;;;;;;;2.70;2.30;;;11.30;99.90;;;;;;5035441;28;20468;-66
2022/05/23 03:35:43;;;;;;;3.30;2.47;;;11.40;99.90;;;;;;5035343;28;20175;-71
2022/05/23 03:38:10;;;;;;;2.80;2.60;;;11.40;99.90;;;;;;5034269;28;20412;-70
2022/05/23 03:40:37;;;;;;;3.03;2.70;;;11.40;99.90;;;;;;5035640;28;20435;-64
2022/05/23 03:43:03;;;;;;;2.40;2.20;;;11.50;99.90;;;;;;5034179;28;20858;-71
2022/05/23 03:45:30;;;;;;;4.73;2.77;;;11.50;99.90;;;;;;5035528;28;20433;-71
2022/05/23 03:47:56;;;;;;;2.80;2.57;;;11.50;99.90;;;;;;5034153;28;20943;-71
2022/05/23 03:50:24;;;;;;;2.70;2.57;;;11.60;99.90;;;;;;5035296;28;20388;-71
2022/05/23 03:52:50;;;;;;;2.50;2.30;;;11.60;99.90;;;;;;5034632;28;20479;-65
2022/05/23 03:55:17;;;;;;;3.57;2.70;;;11.60;99.90;;;;;;5035413;28;20827;-71
2022/05/23 03:57:43;;;;;;;2.53;2.33;;;11.60;99.90;;;;;;5034001;28;20179;-71
2022/05/23 04:00:12;;;;;;;2.17;1.97;;;11.70;99.90;;;;;;5034092;28;20977;-65
2022/05/23 04:02:38;;;;;;;2.90;2.67;;;11.70;99.90;;;;;;5034446;28;20187;-71
2022/05/23 04:05:05;;;;;;;5.33;2.57;;;11.80;99.90;;;;;;5035189;28;20410;-71
2022/05/23 04:07:31;;;;;;;2.90;2.70;;;11.80;99.90;;;;;;5033934;28;20758;-64
2022/05/23 04:09:57;;;;;;;2.80;2.60;;;11.90;99.90;;;;;;5034882;28;20411;-70
2022/05/23 04:12:22;;;;;;;4.20;2.40;;;11.90;99.90;;;;;;5034196;28;20427;-64
2022/05/23 04:14:48;;;;;;;2.80;2.60;;;12.00;99.90;;;;;;5033685;28;20167;-71
2022/05/23 04:17:14;;;;;;;2.77;2.57;;;12.00;99.90;;;;;;5032955;28;20183;-71
2022/05/23 04:19:39;;;;;;;2.37;2.20;;;12.00;99.90;;;;;;5034718;28;20187;-64
2022/05/23 04:22:05;;;;;;;2.37;2.17;;;12.10;99.90;;;;;;5033101;28;20247;-63
2022/05/23 04:24:31;;;;;;;3.90;2.30;;;12.10;99.90;;;;;;5033374;28;20214;-71
2022/05/23 04:26:57;;;;;;;2.63;2.43;;;12.10;99.90;;;;;;5033532;28;20226;-68
2022/05/23 04:29:23;;;;;;;2.20;2.10;;;12.10;99.90;;;;;;5034181;28;20226;-65
2022/05/23 04:31:49;;;;;;;3.87;2.90;;;12.20;99.90;;;;;;5032798;28;20911;-64
2022/05/23 04:37:00;;;;;;;4.50;2.87;;;12.30;99.90;;;;;;5032995;28;20455;-63
2022/05/23 04:39:26;;;;;;;6.10;2.60;;;12.30;99.90;;;;;;5034323;28;20434;-71
2022/05/23 04:41:52;;;;;;;3.73;2.17;;;12.40;99.90;;;;;;5034294;28;20198;-63
2022/05/23 04:44:18;;;;;;;2.77;2.57;;;12.40;99.90;;;;;;5034410;28;20938;-63
2022/05/23 04:52:14;;;;;;;2.60;2.40;;;12.60;99.90;;;;;;5033981;28;20733;-70
2022/05/23 04:54:41;;;;;;;2.17;2.07;;;12.70;99.90;;;;;;5034140;28;20380;-66
2022/05/23 04:57:09;;;;;;;4.03;2.93;;;12.70;99.90;;;;;;5032756;28;20410;-74
2022/05/23 04:59:36;;;;;;;2.33;2.13;;;12.70;99.90;;;;;;5034111;28;20418;-74
2022/05/23 05:02:03;;;;;;;2.70;2.50;;;12.70;99.90;;;;;;5033813;28;20404;-65
2022/05/23 05:04:30;;;;;;;2.63;2.43;;;12.70;99.90;;;;;;5032233;28;20432;-64
2022/05/23 05:06:55;;;;;;;2.60;2.33;;;12.80;99.90;;;;;;5030725;28;20408;-70
2022/05/23 05:09:21;;;;;;;2.70;2.60;;;12.80;99.90;;;;;;5032485;28;20428;-64
2022/05/23 05:11:47;;;;;;;1.90;1.80;;;12.80;99.90;;;;;;5033063;28;20184;-64
2022/05/23 05:14:13;;;;;;;4.30;2.37;;;12.80;99.90;;;;;;5032861;28;20407;-64
2022/05/23 05:16:38;;;;;;;5.00;2.77;;;12.80;99.90;;;;;;5032046;28;20176;-64
2022/05/23 05:19:04;;;;;;;2.10;1.97;;;12.90;99.90;;;;;;5033238;28;20671;-64
2022/05/23 05:21:29;;;;;;;2.60;2.40;;;12.90;99.90;;;;;;5033925;28;20179;-63
2022/05/23 05:23:55;;;;;;;3.70;2.57;;;13.00;99.90;;;;;;5033099;28;20282;-67
2022/05/23 05:26:22;;;;;;;4.93;2.67;;;13.00;99.90;;;;;;5033239;28;20191;-64
2022/05/23 05:28:48;;;;;;;2.43;2.30;;;13.10;99.90;;;;;;5031980;28;20421;-71
2022/05/23 05:31:25;;;;;;;9.00;2.90;;;13.20;99.90;;;;;;5032516;28;20416;-70
2022/05/23 05:33:57;;;;;;;5.50;2.90;;;13.20;99.90;;;;;;5032010;28;20644;-64
2022/05/23 05:36:30;;;;;;;2.23;2.07;;;13.30;99.90;;;;;;5033284;28;20373;-70
2022/05/23 05:38:58;;;;;;;2.00;1.90;;;13.30;99.90;;;;;;5033226;28;20413;-64
2022/05/23 05:41:29;;;;;;;3.80;2.40;;;13.40;99.90;;;;;;5033000;28;20893;-64
2022/05/23 05:43:58;;;;;;;4.23;2.67;;;13.40;99.90;;;;;;5031975;28;20435;-71
2022/05/23 05:46:34;;;;;;;2.40;2.20;;;13.50;99.90;;;;;;5033284;28;20390;-70
2022/05/23 05:49:04;;;;;;;2.77;2.40;;;13.50;99.90;;;;;;5032431;28;20412;-71
2022/05/23 05:51:31;;;;;;;2.00;1.90;;;13.60;99.90;;;;;;5033030;28;20410;-64
2022/05/23 05:53:57;;;;;;;2.93;2.43;;;13.70;99.90;;;;;;5033452;28;20380;-63
2022/05/23 05:56:23;;;;;;;2.27;2.03;;;13.80;99.90;;;;;;5033007;28;20948;-70
2022/05/23 05:58:49;;;;;;;7.43;2.43;;;13.80;99.90;;;;;;5032552;28;20194;-70
2022/05/23 06:01:15;;;;;;;4.23;2.33;;;13.90;99.90;;;;;;5031829;28;20509;-71
2022/05/23 06:03:40;;;;;;;2.20;2.00;;;13.90;99.90;;;;;;5033152;28;20431;-63
2022/05/23 06:11:35;;;;;;;3.90;2.63;;;14.10;99.90;;;;;;5033120;28;20722;-64
2022/05/23 06:14:04;;;;;;;4.50;2.50;;;14.10;99.90;;;;;;5032087;28;20418;-63
2022/05/23 06:16:35;;;;;;;2.60;2.40;;;14.20;99.90;;;;;;5030124;28;20261;-69
2022/05/23 06:19:02;;;;;;;2.50;2.30;;;14.30;99.90;;;;;;5031343;28;20408;-70
2022/05/23 06:21:28;;;;;;;2.57;2.47;;;14.40;99.90;;;;;;5032892;28;20493;-68
2022/05/23 06:23:54;;;;;;;2.67;2.47;;;14.50;99.90;;;;;;5048311;28;20917;-71
2022/05/23 06:26:22;;;;;;;2.10;2.00;;;14.50;99.90;;;;;;5032886;28;20422;-69
2022/05/23 06:28:49;;;;;;;3.07;2.40;;;14.60;99.90;;;;;;5032432;28;20476;-71
2022/05/23 06:31:18;;;;;;;3.13;2.53;;;14.70;99.90;;;;;;5032052;28;21049;-64
2022/05/23 06:33:44;;;;;;;2.30;2.00;;;14.80;99.90;;;;;;5032054;28;20480;-63
2022/05/23 06:36:12;;;;;;;2.47;2.27;;;14.80;99.90;;;;;;5032582;28;20388;-63
2022/05/23 06:38:39;;;;;;;3.80;2.50;;;14.80;99.90;;;;;;5032140;28;20446;-70
2022/05/23 06:41:07;;;;;;;2.53;2.33;;;14.90;99.90;;;;;;5048583;28;20389;-63
2022/05/23 06:43:34;;;;;;;3.00;2.70;;;15.00;99.90;;;;;;5048006;28;20961;-64
2022/05/23 06:46:00;;;;;;;3.07;2.10;;;15.10;99.90;;;;;;5031630;28;20918;-64
2022/05/23 06:48:26;;;;;;;2.73;2.23;;;15.10;99.90;;;;;;5031847;28;20433;-64
2022/05/23 06:50:53;;;;;;;6.37;2.43;;;15.20;99.90;;;;;;5032907;28;20377;-64
2022/05/23 06:53:20;;;;;;;2.30;2.13;;;15.30;99.90;;;;;;5032348;28;20410;-70
2022/05/23 06:55:48;;;;;;;2.47;2.27;;;15.30;99.90;;;;;;5032740;28;20505;-63
2022/05/23 06:58:15;;;;;;;2.47;2.27;;;15.40;99.90;;;;;;5031804;28;20405;-71
2022/05/23 07:00:41;;;;;;;2.33;2.13;;;15.40;99.90;;;;;;5034331;28;20445;-64
2022/05/23 07:03:06;;;;;;;2.20;1.70;;;15.50;99.90;;;;;;5036168;28;20816;-71
2022/05/23 07:13:53;;;;;;;2.30;2.10;;;15.90;99.90;;;;;;5035345;28;20445;-64
2022/05/23 07:16:19;;;;;;;9.63;2.10;;;16.00;99.90;;;;;;5036085;28;20869;-71
2022/05/23 07:18:45;;;;;;;3.13;2.10;;;16.10;99.90;;;;;;5033766;28;20822;-63
2022/05/23 07:21:11;;;;;;;3.70;1.40;;;16.20;99.90;;;;;;5035914;28;20176;-71
2022/05/23 07:23:38;;;;;;;2.20;2.00;;;16.20;99.90;;;;;;5035764;28;20476;-71
2022/05/23 07:26:07;;;;;;;4.70;2.30;;;16.30;99.90;;;;;;5035143;28;20240;-71
2022/05/23 07:28:39;;;;;;;2.33;1.97;;;16.40;99.90;;;;;;5034811;28;20429;-65
2022/05/23 07:31:05;;;;;;;2.60;1.70;;;16.50;99.90;;;;;;5035431;28;20553;-72
2022/05/23 07:33:31;;;;;;;1.93;1.47;;;16.60;99.90;;;;;;5034263;28;20525;-72
2022/05/23 07:35:58;;;;;;;2.67;1.80;;;16.70;99.90;;;;;;5034787;28;20192;-67
2022/05/23 07:38:24;;;;;;;7.27;2.30;;;16.70;99.90;;;;;;5026713;28;20447;-72
2022/05/23 07:40:50;;;;;;;4.20;1.87;;;16.80;99.90;;;;;;5032582;28;20430;-66
2022/05/23 07:43:17;;;;;;;2.33;1.60;;;16.80;99.90;;;;;;5035484;28;20461;-73
2022/05/23 07:45:43;;;;;;;1.80;1.70;;;16.90;99.90;;;;;;5035270;28;20422;-65
2022/05/23 07:48:09;;;;;;;2.80;1.80;;;16.90;99.90;;;;;;5034429;28;20855;-66
2022/05/23 07:50:34;;;;;;;3.60;2.53;;;17.00;99.90;;;;;;5033186;28;20465;-71
2022/05/23 08:01:13;;;;;;;3.73;1.80;;;17.30;99.90;;;;;;5034886;28;20568;-73
2022/05/23 08:03:40;;;;;;;2.20;2.00;;;17.50;99.90;;;;;;5033904;28;20461;-66
2022/05/23 08:06:06;;;;;;;2.67;1.87;;;17.50;99.90;;;;;;5032701;28;20176;-72
2022/05/23 08:08:32;;;;;;;2.97;1.97;;;17.50;99.90;;;;;;5032659;28;20428;-70
2022/05/23 08:10:59;;;;;;;2.80;1.70;;;17.60;99.90;;;;;;5041990;28;20421;-66
2022/05/23 08:13:25;;;;;;;4.10;1.50;;;17.70;99.90;;;;;;5054934;28;20254;-72
2022/05/23 08:15:51;;;;;;;2.33;1.67;;;17.80;99.90;;;;;;5036182;28;20513;-66
2022/05/23 08:18:18;;;;;;;3.47;1.90;;;17.90;99.90;;;;;;5030888;28;20278;-66
2022/05/23 08:20:44;;;;;;;2.30;1.70;;;18.00;99.90;;;;;;5033236;28;20584;-71
2022/05/23 08:23:10;;;;;;;7.10;2.47;;;18.10;99.90;;;;;;5033765;28;20465;-72
2022/05/23 08:25:36;;;;;;;2.27;2.07;;;18.10;99.90;;;;;;5034720;28;20893;-65
2022/05/23 08:28:02;;;;;;;7.03;2.57;;;18.10;99.90;;;;;;5032523;28;20521;-68
2022/05/23 08:30:29;;;;;;;2.03;1.70;;;18.10;99.90;;;;;;5034420;28;20438;-66
2022/05/23 08:32:55;;;;;;;2.70;1.70;;;18.10;95.30;;;;;;5033392;28;20398;-66
2022/05/23 08:38:48;;;;;;;1.70;1.60;;;18.20;96.50;;;;;;5033173;28;20198;-66
2022/05/23 08:41:14;;;;;;;2.63;1.73;;;18.40;98.70;;;;;;5034581;28;20495;-65
2022/05/23 08:44:08;;;;;;;3.10;2.13;;;18.70;98.30;;;;;;5033459;28;20454;-72
2022/05/23 08:46:45;;;;;;;3.10;2.10;;;18.70;95.20;;;;;;5032907;28;20448;-66
2022/05/23 08:49:30;;;;;;;2.00;1.87;;;18.80;95.20;;;;;;5032423;28;20842;-66
2022/05/23 08:52:19;;;;;;;3.00;2.40;;;19.00;95.30;;;;;;5034050;28;20409;-66
2022/05/23 08:54:51;;;;;;;2.60;1.53;;;19.20;95.40;;;;;;5034178;28;20460;-66
2022/05/23 08:57:25;;;;;;;1.60;1.50;;;19.50;95.50;;;;;;5033120;28;20483;-66
2022/05/23 08:59:54;;;;;;;2.23;1.73;;;19.70;95.60;;;;;;5034078;28;20402;-66
2022/05/23 09:02:42;;;;;;;7.30;2.27;;;19.90;95.70;;;;;;5033657;28;20473;-66
2022/05/23 09:05:15;;;;;;;2.97;1.43;;;20.20;95.80;;;;;;5033814;28;20407;-66
2022/05/23 09:07:47;;;;;;;3.83;2.77;;;20.40;95.80;;;;;;5031152;28;20434;-66
2022/05/23 09:10:29;;;;;;;3.53;1.60;;;20.60;95.90;;;;;;5032606;28;20453;-66
2022/05/23 09:12:55;;;;;;;1.50;1.40;;;20.80;96.00;;;;;;5033196;28;20434;-66
2022/05/23 09:15:37;;;;;;;14.73;2.20;;;20.90;93.70;;;;;;5033803;28;20402;-73
2022/05/23 09:18:23;;;;;;;6.10;3.83;;;21.10;96.00;;;;;;5032141;28;20209;-66
2022/05/23 09:20:58;;;;;;;3.90;2.27;;;21.40;92.00;;;;;;5033623;28;20498;-72
2022/05/23 09:23:31;;;;;;;2.00;1.90;;;21.40;86.80;;;;;;5029910;28;20472;-66
2022/05/23 09:26:02;;;;;;;2.00;1.80;;;21.40;81.90;;;;;;5032849;28;20449;-72
2022/05/23 09:28:27;;;;;;;1.87;1.77;;;21.30;85.80;;;;;;5031406;28;20442;-71
2022/05/23 09:31:36;;;;;;;1.70;1.60;;;21.40;80.20;;;;;;5033527;28;20399;-67
2022/05/23 09:34:02;;;;;;;3.10;1.93;;;21.40;77.80;;;;;;5012874;28;20187;-72
2022/05/23 09:36:48;;;;;;;7.20;2.50;;;21.40;76.40;;;;;;5014391;28;20430;-69
2022/05/23 09:39:23;;;;;;;4.50;1.87;;;21.60;77.30;;;;;;5033197;28;20460;-72
2022/05/23 09:47:48;;;;;;;2.70;1.70;;;23.00;78.60;;;;;;5032411;28;20424;-66
2022/05/23 09:50:31;;;;;;;5.03;2.10;;;23.50;75.60;;;;;;5032349;28;20398;-73
2022/05/23 09:52:57;;;;;;;2.87;1.90;;;23.60;66.80;;;;;;5032982;28;20488;-66
2022/05/23 09:55:31;;;;;;;4.70;2.17;;;23.40;61.40;;;;;;5033200;28;20791;-72
2022/05/23 09:58:02;;;;;;;2.73;1.70;;;23.30;56.70;;;;;;5031990;28;20443;-66
2022/05/23 10:00:35;;;;;;;3.10;2.10;;;23.10;48.30;;;;;;5033393;28;20886;-72
2022/05/23 10:03:17;;;;;;;5.00;1.83;;;23.40;52.90;;;;;;5032388;28;20446;-72
2022/05/23 10:05:46;;;;;;;4.30;1.93;;;23.80;59.90;;;;;;5032304;28;20834;-73
2022/05/23 10:08:33;;;;;;;3.23;1.60;;;24.10;52.50;;;;;;5032028;28;20434;-72
2022/05/23 10:11:02;;;;;;;3.33;2.40;;;24.20;53.00;;;;;;5033108;28;20412;-65
2022/05/23 10:13:38;;;;;;;4.70;2.20;;;24.50;45.70;;;;;;5032843;28;20505;-71
2022/05/23 10:16:23;;;;;;;2.37;2.23;;;24.70;44.30;;;;;;5032129;28;20915;-64
2022/05/23 10:18:52;;;;;;;3.50;1.80;;;24.80;44.00;;;;;;5030423;28;20944;-71
2022/05/23 10:21:36;;;;;;;4.17;2.33;;;25.00;39.50;;;;;;5032975;28;20898;-71
2022/05/23 10:24:07;;;;;;;4.20;2.20;;;24.90;36.40;;;;;;5013263;28;20457;-72
2022/05/23 10:26:48;;;;;;;12.13;2.60;;;25.00;36.40;;;;;;5013595;28;20438;-65
2022/05/23 10:29:31;;;;;;;2.87;2.20;;;25.10;37.30;;;;;;5032851;28;20998;-66
2022/05/23 10:32:06;;;;;;;1.60;1.50;;;25.60;39.40;;;;;;5032701;28;20996;-65
2022/05/23 10:34:48;;;;;;;3.10;2.40;;;25.40;27.50;;;;;;5032551;28;20440;-66
2022/05/23 10:37:27;;;;;;;4.70;2.07;;;25.40;31.40;;;;;;5035460;28;20417;-65
2022/05/23 10:43:10;;;;;;;8.33;1.80;;;25.80;26.80;;;;;;5036433;28;20420;-65
2022/05/23 10:45:48;;;;;;;2.37;2.10;;;25.90;27.00;;;;;;5036658;28;20442;-73
2022/05/23 10:48:37;;;;;;;5.33;2.00;;;26.00;23.00;;;;;;5033235;28;20445;-72
2022/05/23 10:51:21;;;;;;;3.73;2.20;;;26.00;15.90;;;;;;5035832;28;20480;-66
2022/05/23 10:54:08;;;;;;;5.47;2.27;;;26.20;19.60;;;;;;5035991;28;20414;-72
2022/05/23 10:56:58;;;;;;;2.37;1.77;;;26.20;15.70;;;;;;5035588;28;20433;-65
2022/05/23 10:59:53;;;;;;;2.40;1.50;;;26.50;13.30;;;;;;5035792;28;20427;-73
2022/05/23 11:02:26;;;;;;;2.57;1.70;;;26.90;17.50;;;;;;5016479;28;20419;-66
2022/05/23 11:05:15;;;;;;;1.73;1.63;;;27.40;11.60;;;;;;5016317;28;20457;-65
2022/05/23 11:07:50;;;;;;;5.93;2.30;;;27.30;12.10;;;;;;5034658;28;20422;-65
2022/05/23 11:10:29;;;;;;;4.07;2.60;;;27.40;7.70;;;;;;5035123;28;20405;-72
2022/05/23 11:13:11;;;;;;;2.70;1.90;;;27.50;3.90;;;;;;5016359;28;20411;-73
2022/05/23 11:15:44;;;;;;;3.47;2.70;;;27.40;3.40;;;;;;5018042;28;20456;-73
2022/05/23 11:18:23;;;;;;;3.20;2.40;;;27.50;1.00;;;;;;5034045;28;20795;-65
2022/05/23 11:20:55;;;;;;;2.50;2.30;;;27.10;1.00;;;;;;5034622;28;20763;-72
2022/05/23 11:23:38;;;;;;;3.67;1.80;;;27.00;1.00;;;;;;5035333;28;20457;-73
2022/05/23 11:26:14;;;;;;;2.63;2.33;;;27.00;1.00;;;;;;5035503;28;20426;-66
2022/05/23 11:34:33;;;;;;;3.07;1.70;;;27.90;1.00;;;;;;5035768;28;20810;-72
2022/05/23 11:40:02;;;;;;;1.60;1.50;;;28.00;1.00;;;;;;5035692;28;20924;-66
2022/05/23 11:42:44;;;;;;;2.03;1.43;;;27.90;1.00;;;;;;5035022;28;20418;-72
2022/05/23 11:48:01;;;;;;;1.93;1.80;;;27.70;1.00;;;;;;5032151;28;20426;-66
2022/05/23 11:50:32;;;;;;;3.13;2.50;;;27.50;1.00;;;;;;5035372;28;20390;-72
2022/05/23 11:53:03;;;;;;;4.43;1.80;;;27.50;1.00;;;;;;5015528;28;20379;-65
2022/05/23 11:55:51;;;;;;;3.73;2.13;;;27.60;1.00;;;;;;5032367;28;20468;-66
2022/05/23 11:58:22;;;;;;;2.73;1.80;;;28.20;1.00;;;;;;5014379;28;20415;-72
2022/05/23 12:01:16;;;;;;;4.93;1.83;;;28.40;1.00;;;;;;5020864;28;20433;-72
2022/05/23 12:03:47;;;;;;;4.00;1.80;;;28.30;1.00;;;;;;5033874;28;20458;-73
2022/05/23 12:06:23;;;;;;;4.40;2.13;;;28.20;1.00;;;;;;5034605;28;20768;-74
2022/05/23 12:08:58;;;;;;;4.03;1.70;;;27.90;1.00;;;;;;5033376;28;20442;-74
2022/05/23 12:11:37;;;;;;;5.27;2.10;;;28.20;1.00;;;;;;5034831;28;20771;-67
2022/05/23 12:14:12;;;;;;;4.60;1.97;;;28.50;1.00;;;;;;5033930;28;20461;-75
2022/05/23 12:16:44;;;;;;;5.93;2.20;;;28.60;1.00;;;;;;5033491;28;21268;-75
2022/05/23 12:19:26;;;;;;;2.10;2.00;;;28.90;1.00;;;;;;5035028;28;20426;-66
2022/05/23 12:21:53;;;;;;;2.00;1.50;;;29.40;1.00;;;;;;5027801;28;20434;-67
2022/05/23 12:24:27;;;;;;;2.17;1.50;;;29.80;1.00;;;;;;5033853;28;20464;-77
2022/05/23 12:26:56;;;;;;;3.00;1.70;;;30.10;1.00;;;;;;5033135;28;20426;-66
2022/05/23 12:29:25;;;;;;;5.33;2.20;;;30.10;1.00;;;;;;5034705;28;20548;-67
2022/05/23 12:32:17;;;;;;;1.97;1.60;;;30.00;1.00;;;;;;5034334;28;20424;-66
2022/05/23 12:34:47;;;;;;;5.13;1.83;;;30.00;1.00;;;;;;5034183;28;20776;-77
2022/05/23 12:37:29;;;;;;;4.00;1.70;;;29.70;1.00;;;;;;5029422;28;20438;-76
2022/05/23 12:40:13;;;;;;;5.10;2.30;;;29.40;1.00;;;;;;5032573;28;20557;-66
2022/05/23 12:42:56;;;;;;;3.87;1.70;;;29.10;1.00;;;;;;5032070;28;20472;-75
2022/05/23 12:45:31;;;;;;;8.80;2.73;;;28.60;1.00;;;;;;5034173;28;20468;-76
2022/05/23 12:48:21;;;;;;;2.37;1.73;;;28.50;1.00;;;;;;5033513;28;20926;-66
2022/05/23 12:51:19;;;;;;;9.37;2.87;;;28.50;1.00;;;;;;5033661;28;20501;-66
2022/05/23 12:54:03;;;;;;;2.20;2.00;;;28.00;1.00;;;;;;5032828;28;20436;-66
2022/05/23 12:56:40;;;;;;;1.80;1.70;;;27.70;1.00;;;;;;5033473;28;20410;-73
2022/05/23 12:59:47;;;;;;;3.27;1.63;;;27.40;1.00;;;;;;5032412;28;20787;-67
2022/05/23 13:02:46;;;;;;;1.90;1.70;;;27.20;1.00;;;;;;5032079;28;20563;-72
2022/05/23 13:05:20;;;;;;;4.90;2.10;;;27.60;1.00;;;;;;5040672;28;20428;-74
2022/05/23 13:07:57;;;;;;;3.17;1.67;;;27.70;1.00;;;;;;5025572;28;20454;-68
2022/05/23 13:10:28;;;;;;;1.80;1.60;;;27.90;1.00;;;;;;5033649;28;20448;-67
2022/05/23 13:13:06;;;;;;;4.17;2.30;;;28.30;1.00;;;;;;5033865;28;20410;-74
2022/05/23 13:15:34;;;;;;;1.97;1.80;;;28.70;1.00;;;;;;5033187;28;20421;-66
2022/05/23 13:23:34;;;;;;;1.50;1.40;;;28.70;1.00;;;;;;5033595;28;20525;-74
2022/05/23 13:26:07;;;;;;;1.90;1.77;;;28.50;1.00;;;;;;5033243;28;20517;-66
2022/05/23 13:28:41;;;;;;;5.60;2.10;;;28.40;1.00;;;;;;5032860;28;20183;-73
2022/05/23 13:31:34;;;;;;;2.27;1.90;;;28.00;1.00;;;;;;5028252;28;20427;-74
2022/05/23 13:34:00;;;;;;;2.23;1.90;;;27.90;1.00;;;;;;5013682;28;20411;-72
2022/05/23 13:36:39;;;;;;;3.23;2.10;;;27.80;1.00;;;;;;5032049;28;20480;-74
2022/05/23 13:39:14;;;;;;;11.40;2.30;;;27.80;1.00;;;;;;5033224;28;20406;-73
2022/05/23 13:41:40;;;;;;;2.77;1.97;;;27.70;1.00;;;;;;5014062;28;20888;-66
2022/05/23 13:44:06;;;;;;;6.30;2.27;;;27.50;1.00;;;;;;5012128;28;20463;-66
2022/05/23 13:46:37;;;;;;;2.57;1.63;;;27.50;1.00;;;;;;5031288;28;20825;-72
2022/05/23 13:49:09;;;;;;;4.87;1.90;;;27.80;1.00;;;;;;5033080;28;20245;-73
2022/05/23 13:51:46;;;;;;;1.60;1.50;;;28.30;1.00;;;;;;5022254;28;20433;-73
2022/05/23 13:54:47;;;;;;;2.23;1.57;;;28.90;1.00;;;;;;5031568;28;20428;-72
2022/05/23 13:57:21;;;;;;;1.57;1.47;;;29.50;1.00;;;;;;5012767;28;20439;-72
2022/05/23 14:00:01;;;;;;;1.67;1.30;;;29.70;1.00;;;;;;5019977;28;20477;-65
2022/05/23 14:02:33;;;;;;;4.63;1.70;;;30.10;1.00;;;;;;5032999;28;20402;-65
2022/05/23 14:05:00;;;;;;;1.77;1.63;;;30.20;1.00;;;;;;5032793;28;20468;-65
2022/05/23 14:07:29;;;;;;;1.83;1.33;;;30.20;1.00;;;;;;5031454;28;20438;-71
2022/05/23 14:09:56;;;;;;;1.73;1.30;;;30.40;1.00;;;;;;5034715;28;20513;-71
2022/05/23 14:12:29;;;;;;;2.50;1.40;;;30.80;1.00;;;;;;5037262;28;20434;-72
2022/05/23 14:15:05;;;;;;;2.50;2.30;;;30.70;1.00;;;;;;5036387;28;20521;-71
2022/05/23 14:17:38;;;;;;;2.80;1.90;;;30.20;1.00;;;;;;5036269;28;20433;-71
2022/05/23 14:20:22;;;;;;;6.87;1.77;;;29.50;1.00;;;;;;5029313;28;20445;-64
2022/05/23 14:23:10;;;;;;;2.00;1.90;;;28.70;1.00;;;;;;5017158;28;20403;-65